Time;durP1;ratioP1;P1;durP2;ratioP2;P2;SDS_P1;SDS_P2;PMS_P1;PMS_P2;Temp;Humidity;BMP_temperature;BMP_pressure;BME280_temperature;BME280_humidity;BME280_pressure;Samples;Min_cycle;Max_cycle;Signal;HPM_P1;HPM_P2
2021/08/07 00:00:42;;;;;;;1.65;0.63;;;;;;;;;;5013900;28;20025;-78
2021/08/07 00:03:08;;;;;;;1.27;0.70;;;;;;;;;;4997184;28;20022;-79
2021/08/07 00:05:34;;;;;;;2.05;0.70;;;;;;;;;;4997185;28;20506;-79
2021/08/07 00:08:00;;;;;;;1.75;0.70;;;;;;;;;;5007291;28;20101;-79
2021/08/07 00:10:26;;;;;;;1.48;0.82;;;;;;;;;;4996055;28;20022;-77
2021/08/07 00:12:52;;;;;;;2.00;0.80;;;;;;;;;;4981137;28;20124;-78
2021/08/07 00:15:18;;;;;;;6.35;0.95;;;;;;;;;;5015144;28;20386;-80
2021/08/07 00:17:44;;;;;;;1.75;0.80;;;;;;;;;;4997152;28;20036;-78
2021/08/07 00:20:10;;;;;;;1.23;0.75;;;;;;;;;;5013403;28;20052;-79
2021/08/07 00:22:37;;;;;;;2.55;1.17;;;;;;;;;;5014541;28;20443;-79
2021/08/07 00:25:03;;;;;;;2.30;0.90;;;;;;;;;;4996789;28;20026;-79
2021/08/07 00:27:29;;;;;;;2.08;1.08;;;;;;;;;;5015214;28;20058;-79
2021/08/07 00:29:55;;;;;;;2.90;1.10;;;;;;;;;;5014618;28;20025;-78
2021/08/07 00:32:21;;;;;;;1.98;0.93;;;;;;;;;;5007900;28;20407;-79
2021/08/07 00:34:47;;;;;;;2.88;0.90;;;;;;;;;;4977529;28;20034;-79
2021/08/07 00:37:13;;;;;;;2.30;1.20;;;;;;;;;;4995907;28;20027;-79
2021/08/07 00:39:39;;;;;;;2.20;0.85;;;;;;;;;;5013666;28;20033;-79
2021/08/07 00:42:05;;;;;;;2.22;0.77;;;;;;;;;;5013963;28;20014;-79
2021/08/07 00:44:31;;;;;;;2.60;0.65;;;;;;;;;;5014461;28;20038;-79
2021/08/07 00:46:57;;;;;;;5.60;0.68;;;;;;;;;;4996975;28;20037;-79
2021/08/07 00:49:23;;;;;;;1.63;0.70;;;;;;;;;;4996834;28;20501;-78
2021/08/07 00:51:49;;;;;;;1.13;0.60;;;;;;;;;;5014892;28;20038;-78
2021/08/07 00:54:15;;;;;;;5.25;0.80;;;;;;;;;;5015840;28;20398;-78
2021/08/07 00:56:42;;;;;;;3.90;0.90;;;;;;;;;;5015988;28;20030;-79
2021/08/07 00:59:08;;;;;;;1.88;1.00;;;;;;;;;;5015429;28;20029;-78
2021/08/07 01:01:37;;;;;;;2.53;0.90;;;;;;;;;;5003669;28;20029;-78
2021/08/07 01:04:04;;;;;;;4.03;1.00;;;;;;;;;;5015902;28;20028;-79
2021/08/07 01:06:48;;;;;;;2.70;0.90;;;;;;;;;;4999411;28;20037;-79
2021/08/07 01:09:17;;;;;;;4.45;0.85;;;;;;;;;;5015857;28;20034;-80
2021/08/07 01:11:53;;;;;;;1.70;0.70;;;;;;;;;;5008026;28;20050;-79
2021/08/07 01:14:23;;;;;;;1.58;0.90;;;;;;;;;;4997496;28;20161;-79
2021/08/07 01:16:49;;;;;;;4.03;0.90;;;;;;;;;;4980096;28;20030;-78
2021/08/07 01:19:17;;;;;;;3.70;0.80;;;;;;;;;;4996537;28;20022;-78
2021/08/07 01:22:03;;;;;;;2.92;0.70;;;;;;;;;;5010327;28;20057;-78
2021/08/07 01:24:35;;;;;;;2.92;0.88;;;;;;;;;;4998866;28;20081;-79
2021/08/07 01:27:19;;;;;;;1.45;0.68;;;;;;;;;;5016762;28;20036;-79
2021/08/07 01:29:46;;;;;;;2.95;0.60;;;;;;;;;;5015730;28;20038;-78
2021/08/07 01:32:12;;;;;;;4.72;1.45;;;;;;;;;;5016038;28;20032;-78
2021/08/07 01:34:39;;;;;;;6.75;1.25;;;;;;;;;;5016485;28;20058;-78
2021/08/07 01:37:05;;;;;;;3.03;0.77;;;;;;;;;;5015493;28;20022;-79
2021/08/07 01:39:31;;;;;;;2.35;0.60;;;;;;;;;;5015402;28;20037;-79
2021/08/07 01:41:57;;;;;;;2.85;0.85;;;;;;;;;;5015781;28;20113;-79
2021/08/07 01:44:23;;;;;;;1.30;0.65;;;;;;;;;;5016207;28;20105;-79
2021/08/07 01:46:56;;;;;;;2.83;0.70;;;;;;;;;;5016329;28;20032;-78
2021/08/07 01:49:28;;;;;;;1.50;0.63;;;;;;;;;;5015788;28;20041;-79
2021/08/07 01:52:04;;;;;;;3.30;1.27;;;;;;;;;;5017060;28;20589;-78
2021/08/07 01:54:34;;;;;;;1.75;0.70;;;;;;;;;;5024948;28;20028;-79
2021/08/07 01:57:01;;;;;;;1.67;0.70;;;;;;;;;;5020421;28;20514;-77
2021/08/07 01:59:28;;;;;;;2.15;0.73;;;;;;;;;;5025918;28;20037;-78
2021/08/07 02:01:55;;;;;;;1.60;0.70;;;;;;;;;;5016720;28;20214;-79
2021/08/07 02:04:21;;;;;;;2.05;0.70;;;;;;;;;;5015821;28;20057;-79
2021/08/07 02:06:49;;;;;;;3.78;0.82;;;;;;;;;;5015775;28;20037;-79
2021/08/07 02:09:17;;;;;;;3.13;0.80;;;;;;;;;;5014442;28;20034;-79
2021/08/07 02:11:43;;;;;;;2.75;0.70;;;;;;;;;;5015160;28;20495;-79
2021/08/07 02:14:10;;;;;;;2.28;0.90;;;;;;;;;;5019110;28;20068;-78
2021/08/07 02:16:38;;;;;;;1.98;0.93;;;;;;;;;;5021022;28;20061;-79
2021/08/07 02:19:05;;;;;;;3.00;0.90;;;;;;;;;;4997491;28;20548;-79
2021/08/07 02:21:32;;;;;;;3.30;0.82;;;;;;;;;;5015012;28;20092;-79
2021/08/07 02:23:58;;;;;;;1.73;0.82;;;;;;;;;;5015467;28;20028;-79
2021/08/07 02:26:24;;;;;;;1.98;0.80;;;;;;;;;;5015549;28;20038;-77
2021/08/07 02:28:51;;;;;;;3.72;0.70;;;;;;;;;;5014092;28;20030;-79
2021/08/07 02:31:17;;;;;;;2.28;0.70;;;;;;;;;;5006804;28;20514;-78
2021/08/07 02:33:44;;;;;;;2.33;0.80;;;;;;;;;;4997366;28;20029;-80
2021/08/07 02:36:12;;;;;;;4.78;0.80;;;;;;;;;;5015441;28;20468;-79
2021/08/07 02:38:38;;;;;;;1.20;0.50;;;;;;;;;;4997476;28;20026;-78
2021/08/07 02:41:05;;;;;;;1.08;0.70;;;;;;;;;;5004595;28;20026;-77
2021/08/07 02:43:32;;;;;;;2.90;0.70;;;;;;;;;;5020009;28;20122;-77
2021/08/07 02:45:59;;;;;;;2.03;0.70;;;;;;;;;;5018823;28;20030;-79
2021/08/07 02:48:26;;;;;;;2.97;0.98;;;;;;;;;;5007244;28;20071;-77
2021/08/07 02:50:52;;;;;;;4.03;0.70;;;;;;;;;;5026086;28;20022;-78
2021/08/07 02:53:19;;;;;;;3.78;1.00;;;;;;;;;;5028120;28;20110;-76
2021/08/07 02:55:45;;;;;;;1.13;0.50;;;;;;;;;;5025901;28;20387;-78
2021/08/07 02:58:11;;;;;;;1.73;0.63;;;;;;;;;;5029556;28;20542;-79
2021/08/07 03:00:38;;;;;;;1.98;0.93;;;;;;;;;;5027609;28;20036;-80
2021/08/07 03:03:04;;;;;;;2.33;0.50;;;;;;;;;;5025201;28;20033;-80
2021/08/07 03:05:30;;;;;;;2.20;0.60;;;;;;;;;;5022499;28;20026;-80
2021/08/07 03:07:56;;;;;;;3.72;0.82;;;;;;;;;;5022739;28;20030;-79
2021/08/07 03:10:22;;;;;;;2.88;0.90;;;;;;;;;;5021418;28;20029;-80
2021/08/07 03:12:52;;;;;;;4.75;0.98;;;;;;;;;;5005181;28;20141;-81
2021/08/07 03:15:19;;;;;;;3.40;1.02;;;;;;;;;;5022832;28;20577;-78
2021/08/07 03:17:44;;;;;;;1.35;0.68;;;;;;;;;;5021823;28;20104;-79
2021/08/07 03:20:11;;;;;;;3.00;0.70;;;;;;;;;;5003594;28;20509;-80
2021/08/07 03:22:37;;;;;;;4.30;0.80;;;;;;;;;;5021868;28;20373;-80
2021/08/07 03:25:03;;;;;;;2.15;0.70;;;;;;;;;;5022093;28;20033;-79
2021/08/07 03:27:29;;;;;;;2.72;0.75;;;;;;;;;;5021605;28;20546;-79
2021/08/07 03:29:55;;;;;;;1.98;1.30;;;;;;;;;;5020440;28;20069;-80
2021/08/07 03:32:21;;;;;;;0.82;0.55;;;;;;;;;;5021459;28;20026;-79
2021/08/07 03:34:47;;;;;;;2.55;0.70;;;;;;;;;;5020925;28;20030;-80
2021/08/07 03:37:13;;;;;;;2.03;0.60;;;;;;;;;;5020864;28;20025;-79
2021/08/07 03:39:40;;;;;;;2.00;0.77;;;;;;;;;;5001075;28;20024;-79
2021/08/07 03:42:06;;;;;;;2.15;0.75;;;;;;;;;;5024677;28;20033;-79
2021/08/07 03:44:32;;;;;;;1.95;0.73;;;;;;;;;;5030848;28;20057;-79
2021/08/07 03:46:58;;;;;;;4.72;1.63;;;;;;;;;;5013949;28;20036;-79
2021/08/07 03:49:24;;;;;;;3.22;0.88;;;;;;;;;;5024320;28;20034;-79
2021/08/07 03:51:50;;;;;;;2.05;0.60;;;;;;;;;;5021115;28;20101;-80
2021/08/07 03:54:16;;;;;;;1.73;0.60;;;;;;;;;;5021416;28;20026;-79
2021/08/07 03:56:42;;;;;;;1.88;0.82;;;;;;;;;;5022336;28;20076;-79
2021/08/07 03:59:08;;;;;;;1.73;0.70;;;;;;;;;;5020448;28;20033;-79
2021/08/07 04:01:34;;;;;;;3.60;0.80;;;;;;;;;;5017494;28;20022;-79
2021/08/07 04:04:00;;;;;;;1.90;0.70;;;;;;;;;;5018236;28;20630;-79
2021/08/07 04:06:26;;;;;;;2.38;0.90;;;;;;;;;;5018186;28;20030;-78
2021/08/07 04:08:52;;;;;;;2.92;0.80;;;;;;;;;;5018581;28;20037;-79
2021/08/07 04:11:18;;;;;;;1.52;0.80;;;;;;;;;;5028191;28;20026;-77
2021/08/07 04:13:44;;;;;;;7.47;0.95;;;;;;;;;;5021084;28;20034;-77
2021/08/07 04:16:10;;;;;;;2.03;0.73;;;;;;;;;;5026868;28;20038;-77
2021/08/07 04:18:36;;;;;;;5.40;0.82;;;;;;;;;;5019675;28;20033;-79
2021/08/07 04:21:02;;;;;;;2.17;1.00;;;;;;;;;;5017545;28;20033;-78
2021/08/07 04:23:28;;;;;;;4.40;0.95;;;;;;;;;;5000626;28;20033;-79
2021/08/07 04:25:54;;;;;;;3.35;0.80;;;;;;;;;;5018584;28;20038;-79
2021/08/07 04:28:19;;;;;;;2.97;0.95;;;;;;;;;;5000917;28;20030;-79
2021/08/07 04:30:45;;;;;;;1.58;0.80;;;;;;;;;;5017473;28;20132;-78
2021/08/07 04:33:11;;;;;;;1.48;0.70;;;;;;;;;;5018445;28;20030;-78
2021/08/07 04:35:38;;;;;;;1.98;0.80;;;;;;;;;;5017669;28;20402;-79
2021/08/07 04:38:04;;;;;;;2.65;1.13;;;;;;;;;;5017403;28;20034;-78
2021/08/07 04:40:30;;;;;;;2.33;0.80;;;;;;;;;;5016435;28;20031;-79
2021/08/07 04:42:57;;;;;;;2.67;0.80;;;;;;;;;;5017595;28;20514;-79
2021/08/07 04:45:23;;;;;;;3.42;0.88;;;;;;;;;;5000438;28;20105;-79
2021/08/07 04:48:03;;;;;;;2.92;0.77;;;;;;;;;;5000119;28;20026;-78
2021/08/07 04:50:31;;;;;;;4.10;0.73;;;;;;;;;;5016628;28;20113;-79
2021/08/07 04:52:58;;;;;;;2.28;1.13;;;;;;;;;;5017558;28;20121;-78
2021/08/07 04:55:24;;;;;;;2.70;0.70;;;;;;;;;;5017582;28;20376;-78
2021/08/07 04:57:50;;;;;;;2.92;0.60;;;;;;;;;;5017030;28;20149;-79
2021/08/07 05:00:17;;;;;;;1.48;0.68;;;;;;;;;;5015671;28;20022;-79
2021/08/07 05:02:45;;;;;;;2.70;0.60;;;;;;;;;;5017532;28;20029;-78
2021/08/07 05:05:12;;;;;;;2.13;0.60;;;;;;;;;;5000586;28;20399;-78
2021/08/07 05:07:38;;;;;;;1.10;0.70;;;;;;;;;;5012161;28;20035;-78
2021/08/07 05:10:06;;;;;;;4.93;0.70;;;;;;;;;;4995644;28;20031;-79
2021/08/07 05:12:32;;;;;;;2.60;0.57;;;;;;;;;;5016555;28;20123;-79
2021/08/07 05:14:58;;;;;;;2.10;0.60;;;;;;;;;;5016676;28;20031;-78
2021/08/07 05:17:25;;;;;;;3.60;1.00;;;;;;;;;;5016650;28;20127;-79
2021/08/07 05:19:51;;;;;;;5.10;0.90;;;;;;;;;;5016464;28;20022;-79
2021/08/07 05:22:17;;;;;;;3.00;0.80;;;;;;;;;;5016324;28;20033;-79
2021/08/07 05:24:43;;;;;;;3.03;0.60;;;;;;;;;;5016520;28;20021;-80
2021/08/07 05:27:09;;;;;;;2.72;1.10;;;;;;;;;;5016652;28;20030;-79
2021/08/07 05:29:35;;;;;;;2.72;0.75;;;;;;;;;;5016511;28;20110;-79
2021/08/07 05:32:01;;;;;;;2.22;0.70;;;;;;;;;;5020561;28;20061;-78
2021/08/07 05:34:27;;;;;;;2.72;0.80;;;;;;;;;;5020424;28;20114;-80
2021/08/07 05:36:53;;;;;;;2.40;1.13;;;;;;;;;;5016814;28;20062;-79
2021/08/07 05:39:19;;;;;;;2.00;0.65;;;;;;;;;;5015898;28;20033;-79
2021/08/07 05:41:45;;;;;;;5.30;0.73;;;;;;;;;;5017051;28;20026;-78
2021/08/07 05:44:11;;;;;;;3.72;0.70;;;;;;;;;;5016659;28;20517;-79
2021/08/07 05:46:37;;;;;;;3.10;0.88;;;;;;;;;;5016718;28;20030;-79
2021/08/07 05:49:03;;;;;;;1.50;0.60;;;;;;;;;;5016426;28;20038;-79
2021/08/07 05:51:32;;;;;;;1.63;0.63;;;;;;;;;;5016512;28;20042;-80
2021/08/07 05:53:59;;;;;;;1.17;0.60;;;;;;;;;;5017010;28;20025;-79
2021/08/07 05:56:25;;;;;;;5.50;0.60;;;;;;;;;;5018997;28;20072;-78
2021/08/07 05:58:50;;;;;;;2.65;0.73;;;;;;;;;;5016873;28;20022;-79
2021/08/07 06:01:16;;;;;;;3.45;0.95;;;;;;;;;;5014597;28;20486;-78
2021/08/07 06:03:42;;;;;;;1.92;0.57;;;;;;;;;;5014771;28;20026;-78
2021/08/07 06:06:08;;;;;;;3.78;0.90;;;;;;;;;;5015057;28;20029;-78
2021/08/07 06:08:34;;;;;;;1.75;0.60;;;;;;;;;;5002228;28;20525;-79
2021/08/07 06:11:00;;;;;;;2.55;0.68;;;;;;;;;;5002187;28;20030;-79
2021/08/07 06:13:27;;;;;;;2.30;0.70;;;;;;;;;;5014054;28;20048;-79
2021/08/07 06:15:53;;;;;;;2.30;0.93;;;;;;;;;;5013729;28;20033;-79
2021/08/07 06:18:19;;;;;;;2.03;0.60;;;;;;;;;;5014366;28;20033;-79
2021/08/07 06:20:45;;;;;;;3.15;0.90;;;;;;;;;;5015910;28;20026;-78
2021/08/07 06:23:12;;;;;;;1.17;0.60;;;;;;;;;;5016557;28;20446;-76
2021/08/07 06:25:38;;;;;;;3.60;0.80;;;;;;;;;;5012362;28;20030;-77
2021/08/07 06:28:04;;;;;;;1.23;0.50;;;16.40;99.90;;;;;;5013788;28;20035;-77
2021/08/07 06:30:30;;;;;;;1.98;0.70;;;19.80;99.90;;;;;;4997961;28;20082;-77
2021/08/07 06:32:56;;;;;;;3.22;0.80;;;19.70;99.90;;;;;;5004962;28;20030;-77
2021/08/07 06:35:22;;;;;;;2.97;0.85;;;20.50;99.90;;;;;;5007295;28;20080;-80
2021/08/07 06:37:49;;;;;;;4.30;0.70;;;19.90;99.90;;;;;;5013606;28;20487;-81
2021/08/07 06:40:15;;;;;;;4.97;0.80;;;19.90;99.90;;;;;;5011147;28;20042;-78
2021/08/07 06:42:41;;;;;;;1.95;0.70;;;20.00;99.90;;;;;;5008793;28;20025;-79
2021/08/07 06:45:08;;;;;;;2.13;0.90;;;20.00;99.90;;;;;;5019108;28;20486;-81
2021/08/07 06:47:34;;;;;;;1.67;0.73;;;;;;;;;;5017061;28;20092;-80
2021/08/07 06:50:00;;;;;;;2.08;0.80;;;;;;;;;;5016614;28;20033;-81
2021/08/07 06:52:26;;;;;;;2.80;0.75;;;;;;;;;;5014777;28;20041;-79
2021/08/07 06:54:52;;;;;;;2.65;0.65;;;;;;;;;;5015570;28;20030;-80
2021/08/07 06:57:19;;;;;;;6.35;0.90;;;;;;;;;;5016624;28;20033;-79
2021/08/07 06:59:45;;;;;;;3.03;0.65;;;;;;;;;;5015047;28;20030;-79
2021/08/07 07:02:11;;;;;;;2.92;0.80;;;;;;;;;;5015699;28;20421;-80
2021/08/07 07:04:37;;;;;;;2.50;0.57;;;;;;;;;;5016738;28;20037;-80
2021/08/07 07:07:04;;;;;;;2.45;0.60;;;;;;;;;;5016988;28;20053;-81
2021/08/07 07:09:30;;;;;;;1.33;0.55;;;;;;;;;;4982091;28;20415;-79
2021/08/07 07:11:56;;;;;;;1.50;0.60;;;;;;;;;;5016811;28;20087;-80
2021/08/07 07:14:22;;;;;;;2.50;0.75;;;;;;;;;;5001179;28;20034;-78
2021/08/07 07:16:48;;;;;;;3.13;0.70;;;;;;;;;;5017007;28;20029;-78
2021/08/07 07:19:15;;;;;;;2.60;0.60;;;;;;;;;;4998869;28;20029;-78
2021/08/07 07:21:41;;;;;;;1.92;0.50;;;;;;;;;;5022773;28;20025;-78
2021/08/07 07:24:07;;;;;;;9.63;0.80;;;;;;;;;;5018959;28;20386;-80
2021/08/07 07:26:33;;;;;;;3.13;1.20;;;;;;;;;;5013485;28;20076;-77
2021/08/07 07:28:59;;;;;;;2.80;0.70;;;20.20;99.90;;;;;;4996447;28;20570;-79
2021/08/07 07:31:25;;;;;;;3.50;0.70;;;21.30;99.90;;;;;;5012783;28;20063;-79
2021/08/07 07:33:51;;;;;;;2.83;0.68;;;21.10;99.90;;;;;;5012988;28;20491;-78
2021/08/07 07:36:17;;;;;;;6.55;0.80;;;21.00;99.90;;;;;;5015295;28;20026;-78
2021/08/07 07:38:43;;;;;;;2.13;0.70;;;21.00;99.90;;;;;;5012545;28;20026;-77
2021/08/07 07:41:09;;;;;;;2.88;0.80;;;21.10;99.90;;;;;;5014545;28;20052;-78
2021/08/07 07:43:35;;;;;;;2.60;1.00;;;21.20;99.90;;;;;;5013597;28;20041;-77
2021/08/07 07:46:02;;;;;;;3.50;1.30;;;21.30;99.90;;;;;;5011999;28;20399;-75
2021/08/07 07:48:28;;;;;;;2.92;1.20;;;21.40;99.90;;;;;;5012529;28;20049;-77
2021/08/07 07:50:53;;;;;;;4.38;1.15;;;21.60;99.90;;;;;;5010511;28;20584;-76
2021/08/07 07:53:19;;;;;;;1.83;0.98;;;21.70;99.90;;;;;;5013164;28;20445;-77
2021/08/07 07:55:45;;;;;;;5.30;1.17;;;21.70;99.90;;;;;;5011830;28;20049;-76
2021/08/07 07:58:11;;;;;;;3.92;1.25;;;;;;;;;;5013111;28;20050;-75
2021/08/07 08:00:37;;;;;;;3.60;1.40;;;;;;;;;;5011188;28;20045;-76
2021/08/07 08:03:04;;;;;;;2.97;1.23;;;;;;;;;;5010217;28;20445;-76
2021/08/07 08:05:30;;;;;;;2.75;1.00;;;;;;;;;;5010314;28;20117;-76
2021/08/07 08:07:56;;;;;;;1.98;0.85;;;;;;;;;;5011277;28;20038;-76
2021/08/07 08:10:22;;;;;;;4.07;0.95;;;;;;;;;;5010255;28;20040;-76
2021/08/07 08:12:48;;;;;;;2.33;0.90;;;;;;;;;;5013056;28;20076;-77
2021/08/07 08:15:14;;;;;;;1.73;0.80;;;;;;;;;;5014556;28;20065;-77
2021/08/07 08:17:41;;;;;;;5.15;0.80;;;;;;;;;;5021788;28;20108;-78
2021/08/07 08:20:08;;;;;;;1.95;0.80;;;;;;;;;;5008686;28;20074;-78
2021/08/07 08:22:34;;;;;;;2.40;0.70;;;;;;;;;;4998651;28;20061;-78
2021/08/07 08:25:00;;;;;;;3.42;0.98;;;;;;;;;;5017498;28;20026;-78
2021/08/07 08:27:26;;;;;;;5.70;0.60;;;;;;;;;;5017361;28;20033;-76
2021/08/07 08:29:53;;;;;;;2.47;0.80;;;;;;;;;;5016601;28;20026;-78
2021/08/07 08:32:19;;;;;;;2.03;0.80;;;;;;;;;;5015798;28;20048;-79
2021/08/07 08:34:45;;;;;;;4.20;0.77;;;;;;;;;;5017737;28;20064;-81
2021/08/07 08:37:11;;;;;;;3.97;0.85;;;;;;;;;;5019005;28;20041;-80
2021/08/07 08:39:37;;;;;;;1.95;0.60;;;;;;;;;;5019665;28;20022;-80
2021/08/07 08:42:03;;;;;;;3.25;0.60;;;;;;;;;;5020565;28;20399;-79
2021/08/07 08:44:29;;;;;;;6.03;0.95;;;22.10;99.90;;;;;;5018726;28;20034;-81
2021/08/07 08:46:54;;;;;;;2.63;0.93;;;23.50;99.90;;;;;;5010199;28;20042;-77
2021/08/07 08:49:21;;;;;;;2.95;1.05;;;23.20;99.90;;;;;;5024148;28;20052;-79
2021/08/07 08:51:49;;;;;;;3.20;0.70;;;23.00;99.90;;;;;;5026340;28;20129;-77
2021/08/07 08:54:19;;;;;;;3.13;0.93;;;23.00;99.90;;;;;;5026507;28;20124;-80
2021/08/07 08:56:49;;;;;;;3.13;0.90;;;23.10;99.90;;;;;;5024833;28;20041;-78
2021/08/07 08:59:18;;;;;;;2.53;0.90;;;23.20;99.90;;;;;;5002264;28;20100;-79
2021/08/07 09:01:44;;;;;;;2.00;0.77;;;23.20;99.90;;;;;;5020903;28;20022;-80
2021/08/07 09:04:10;;;;;;;3.30;0.85;;;23.20;99.90;;;;;;5021935;28;20042;-80
2021/08/07 09:06:35;;;;;;;2.25;0.60;;;23.40;99.90;;;;;;5025927;28;20080;-77
2021/08/07 09:09:13;;;;;;;2.50;1.02;;;23.60;99.90;;;;;;5018142;28;20033;-79
2021/08/07 09:11:53;;;;;;;2.90;0.77;;;23.40;99.90;;;;;;5019099;28;20422;-79
2021/08/07 09:14:21;;;;;;;2.00;0.63;;;23.60;99.90;;;;;;5018876;28;20098;-78
2021/08/07 09:17:03;;;;;;;3.90;0.80;;;23.80;99.90;;;;;;5018080;28;20160;-80
2021/08/07 09:19:51;;;;;;;1.77;0.90;;;23.80;99.90;;;;;;5018312;28;20068;-80
2021/08/07 09:22:25;;;;;;;3.70;0.80;;;24.20;99.90;;;;;;5019311;28;20072;-80
2021/08/07 09:25:17;;;;;;;4.57;1.00;;;24.60;99.90;;;;;;5019077;28;20022;-80
2021/08/07 09:27:48;;;;;;;3.80;1.00;;;24.60;99.90;;;;;;5017478;28;20038;-79
2021/08/07 09:30:16;;;;;;;3.33;0.90;;;24.40;99.90;;;;;;5023279;28;20057;-78
2021/08/07 09:32:55;;;;;;;2.97;0.80;;;24.50;99.90;;;;;;5021921;28;20026;-79
2021/08/07 09:35:23;;;;;;;2.67;0.82;;;24.60;99.90;;;;;;5020261;28;20032;-80
2021/08/07 09:38:19;;;;;;;4.65;0.55;;;24.50;99.90;;;;;;5018526;28;20018;-80
2021/08/07 09:40:50;;;;;;;4.93;1.13;;;24.20;99.90;;;;;;4999551;28;20034;-79
2021/08/07 09:43:28;;;;;;;1.50;0.73;;;23.80;99.90;;;;;;5015313;28;20038;-78
2021/08/07 09:46:16;;;;;;;3.63;0.80;;;23.60;99.90;;;;;;5017361;28;20505;-78
2021/08/07 09:48:48;;;;;;;2.80;1.02;;;23.70;99.90;;;;;;5018107;28;20033;-80
2021/08/07 09:51:35;;;;;;;2.28;0.63;;;23.70;99.90;;;;;;5000737;28;20068;-79
2021/08/07 09:54:15;;;;;;;4.30;1.00;;;23.50;99.90;;;;;;5007814;28;20033;-78
2021/08/07 09:56:53;;;;;;;2.05;0.70;;;23.60;99.90;;;;;;5018515;28;20025;-80
2021/08/07 09:59:21;;;;;;;2.97;0.90;;;23.60;99.90;;;;;;5016823;28;20429;-79
2021/08/07 10:01:49;;;;;;;3.25;0.70;;;23.70;99.90;;;;;;5019419;28;20030;-80
2021/08/07 10:04:16;;;;;;;2.42;0.82;;;23.70;99.90;;;;;;5016577;28;20034;-80
2021/08/07 10:06:44;;;;;;;3.08;1.00;;;23.40;99.90;;;;;;5017781;28;20067;-80
2021/08/07 10:09:11;;;;;;;1.08;0.73;;;23.10;99.90;;;;;;5015917;28;20041;-79
2021/08/07 10:11:38;;;;;;;4.55;1.23;;;22.90;99.90;;;;;;5017470;28;20045;-78
2021/08/07 10:14:04;;;;;;;3.60;0.95;;;22.60;99.90;;;;;;5018205;28;20033;-79
2021/08/07 10:16:32;;;;;;;2.85;0.93;;;22.60;99.90;;;;;;5000294;28;20076;-79
2021/08/07 10:18:59;;;;;;;2.42;0.70;;;22.60;99.90;;;;;;5017112;28;20064;-79
2021/08/07 10:21:25;;;;;;;2.35;0.80;;;23.00;99.90;;;;;;5017667;28;20053;-79
2021/08/07 10:23:54;;;;;;;2.30;0.90;;;23.20;99.90;;;;;;5017908;28;20037;-79
2021/08/07 10:26:20;;;;;;;3.80;1.02;;;24.00;99.90;;;;;;5016859;28;20078;-78
2021/08/07 10:28:54;;;;;;;3.33;0.80;;;23.30;99.90;;;;;;5017130;28;20371;-79
2021/08/07 10:31:23;;;;;;;3.25;0.90;;;23.20;99.90;;;;;;5003188;28;20418;-79
2021/08/07 10:33:51;;;;;;;4.00;1.00;;;23.30;99.90;;;;;;5018189;28;20069;-79
2021/08/07 10:36:17;;;;;;;4.53;1.00;;;23.10;99.90;;;;;;5018921;28;20441;-79
2021/08/07 10:38:43;;;;;;;4.57;1.08;;;23.20;99.90;;;;;;5018249;28;20033;-79
2021/08/07 10:41:09;;;;;;;6.97;0.93;;;23.20;99.90;;;;;;5000418;28;20029;-79
2021/08/07 10:43:39;;;;;;;4.05;1.13;;;23.30;99.90;;;;;;5022297;28;20050;-79
2021/08/07 10:46:07;;;;;;;3.25;1.02;;;23.10;99.90;;;;;;5029408;28;20042;-76
2021/08/07 10:48:40;;;;;;;2.08;0.75;;;23.10;99.90;;;;;;5030160;28;20052;-76
2021/08/07 10:51:24;;;;;;;5.45;0.90;;;23.20;99.90;;;;;;5027273;28;20091;-77
2021/08/07 10:53:54;;;;;;;4.00;1.40;;;23.20;99.90;;;;;;5027812;28;20033;-80
2021/08/07 10:56:29;;;;;;;6.00;1.48;;;23.10;99.90;;;;;;5016404;28;20029;-79
2021/08/07 10:59:09;;;;;;;3.40;1.10;;;22.90;99.90;;;;;;5017826;28;20112;-79
2021/08/07 11:01:42;;;;;;;3.50;1.10;;;22.70;99.90;;;;;;5023950;28;20022;-76
2021/08/07 11:04:11;;;;;;;;;;;22.70;99.90;;;;;;5004904;28;20026;-79
2021/08/07 11:06:52;;;;;;;4.78;1.40;;;22.70;99.90;;;;;;5027705;28;19905;-77
2021/08/07 11:09:22;;;;;;;2.63;0.93;;;22.80;99.90;;;;;;5027940;28;20087;-78
2021/08/07 11:11:50;;;;;;;3.40;0.95;;;22.80;99.90;;;;;;5021522;28;20048;-79
2021/08/07 11:14:21;;;;;;;4.72;1.48;;;22.70;99.90;;;;;;5021149;28;20053;-80
2021/08/07 11:17:05;;;;;;;3.58;1.30;;;22.60;99.90;;;;;;5021815;28;20034;-79
2021/08/07 11:19:48;;;;;;;4.68;1.27;;;22.50;99.90;;;;;;5020534;28;20022;-78
2021/08/07 11:22:16;;;;;;;2.55;1.00;;;22.40;99.90;;;;;;5021061;28;20044;-79
2021/08/07 11:24:57;;;;;;;5.68;1.10;;;22.20;99.90;;;;;;5019894;28;20045;-79
2021/08/07 11:28:06;;;;;;;3.15;1.08;;;22.20;99.90;;;;;;5020864;28;20422;-80
2021/08/07 11:30:41;;;;;;;3.08;1.00;;;22.10;99.90;;;;;;5019806;28;20525;-79
2021/08/07 11:33:09;;;;;;;2.17;0.90;;;22.00;99.90;;;;;;5021224;28;20029;-79
2021/08/07 11:35:38;;;;;;;3.53;1.40;;;21.70;99.90;;;;;;5014421;28;20100;-79
2021/08/07 11:38:15;;;;;;;5.20;1.33;;;21.60;99.90;;;;;;5002300;28;20097;-78
2021/08/07 11:40:55;;;;;;;5.85;1.33;;;21.50;99.90;;;;;;5019354;28;20088;-80
2021/08/07 11:43:26;;;;;;;2.88;1.40;;;21.50;99.90;;;;;;5021029;28;20364;-79
2021/08/07 11:45:54;;;;;;;8.02;1.27;;;21.40;99.90;;;;;;5020572;28;20072;-79
2021/08/07 11:48:41;;;;;;;4.38;0.90;;;21.40;99.90;;;;;;5019169;28;20045;-78
2021/08/07 11:51:09;;;;;;;5.75;2.53;;;21.20;99.90;;;;;;5016559;28;20033;-79
2021/08/07 11:53:38;;;;;;;2.88;1.20;;;20.80;99.90;;;;;;5002365;28;20049;-79
2021/08/07 11:56:05;;;;;;;5.75;1.50;;;20.20;99.90;;;;;;5020484;28;20025;-79
2021/08/07 11:58:33;;;;;;;3.97;1.38;;;20.80;99.90;;;;;;5019534;28;20026;-80
2021/08/07 12:01:03;;;;;;;4.80;1.35;;;19.80;99.90;;;;;;5019675;28;20092;-79
2021/08/07 12:03:59;;;;;;;3.67;1.35;;;19.80;99.90;;;;;;5021120;28;20356;-79
2021/08/07 12:06:34;;;;;;;4.55;1.60;;;19.50;99.90;;;;;;5003766;28;20034;-78
2021/08/07 12:09:02;;;;;;;3.55;1.48;;;19.40;99.90;;;;;;5013616;28;20029;-77
2021/08/07 12:11:28;;;;;;;5.00;1.75;;;20.10;99.90;;;;;;5019748;28;20056;-80
2021/08/07 12:13:58;;;;;;;4.93;1.80;;;19.40;99.90;;;;;;5021472;28;20052;-81
2021/08/07 12:16:43;;;;;;;3.40;1.50;;;;;;;;;;5022178;28;20049;-80
2021/08/07 12:19:20;;;;;;;3.97;1.80;;;;;;;;;;5022452;28;20064;-79
2021/08/07 12:21:46;;;;;;;10.35;2.10;;;;;;;;;;5024074;28;20426;-79
2021/08/07 12:24:14;;;;;;;2.78;1.67;;;;;;;;;;5020974;28;20082;-80
2021/08/07 12:26:41;;;;;;;5.20;2.15;;;;;;;;;;5018191;28;20038;-79
2021/08/07 12:29:08;;;;;;;5.68;2.13;;;;;;;;;;5018491;28;20511;-80
2021/08/07 12:31:38;;;;;;;4.78;1.83;;;;;;;;;;5018867;28;20036;-80
2021/08/07 12:34:14;;;;;;;4.60;2.10;;;;;;;;;;5019946;28;20058;-81
2021/08/07 12:36:41;;;;;;;6.35;2.20;;;;;;;;;;5023495;28;20059;-78
2021/08/07 12:39:07;;;;;;;5.20;1.70;;;;;;;;;;5030184;28;20033;-77
2021/08/07 12:41:33;;;;;;;2.88;1.52;;;;;;;;;;5031309;28;20022;-78
2021/08/07 12:43:59;;;;;;;4.40;1.83;;;;;;;;;;5027516;28;20034;-81
2021/08/07 12:46:25;;;;;;;3.75;1.67;;;;;;;;;;5018347;28;20116;-82
2021/08/07 12:48:51;;;;;;;5.30;2.10;;;;;;;;;;5019530;28;20394;-81
2021/08/07 12:51:22;;;;;;;5.93;1.95;;;;;;;;;;5019093;28;20783;-81
2021/08/07 12:53:48;;;;;;;5.55;2.38;;;;;;;;;;5019065;28;20034;-81
2021/08/07 12:56:15;;;;;;;5.05;2.00;;;;;;;;;;5019126;28;20026;-80
2021/08/07 12:59:00;;;;;;;5.55;2.47;;;;;;;;;;5000450;28;20026;-81
2021/08/07 13:01:27;;;;;;;6.18;3.38;;;;;;;;;;5017904;28;20029;-80
2021/08/07 13:03:54;;;;;;;4.78;2.22;;;;;;;;;;5018526;22;20046;-81
2021/08/07 13:06:21;;;;;;;5.97;2.15;;;;;;;;;;5016822;28;20526;-80
2021/08/07 13:08:47;;;;;;;5.57;2.38;;;;;;;;;;5019104;28;20458;-80
2021/08/07 13:11:16;;;;;;;6.30;2.60;;;;;;;;;;5018547;28;20100;-80
2021/08/07 13:13:46;;;;;;;6.72;2.00;;;;;;;;;;5001001;28;20037;-81
2021/08/07 13:16:12;;;;;;;6.70;2.55;;;;;;;;;;5019253;28;20046;-79
2021/08/07 13:18:38;;;;;;;3.97;1.70;;;;;;;;;;5017267;28;20050;-80
2021/08/07 13:21:05;;;;;;;6.93;2.10;;;;;;;;;;5018240;28;20023;-80
2021/08/07 13:23:37;;;;;;;3.40;2.10;;;;;;;;;;5022114;28;20052;-79
2021/08/07 13:26:10;;;;;;;3.78;1.88;;;;;;;;;;5024794;28;20037;-79
2021/08/07 13:28:37;;;;;;;4.50;1.80;;;;;;;;;;5019957;28;20026;-79
2021/08/07 13:31:04;;;;;;;5.07;1.65;;;;;;;;;;5012000;28;20025;-80
2021/08/07 13:33:31;;;;;;;3.78;1.50;;;;;;;;;;5017984;28;20056;-79
2021/08/07 13:35:57;;;;;;;3.75;1.80;;;;;;;;;;4997419;28;20041;-76
2021/08/07 13:38:24;;;;;;;5.10;1.52;;;;;;;;;;5010751;28;20026;-77
2021/08/07 13:40:50;;;;;;;7.07;1.52;;;;;;;;;;5012620;28;20030;-77
2021/08/07 13:43:16;;;;;;;3.05;1.58;;;;;;;;;;4994348;28;20029;-76
2021/08/07 13:45:43;;;;;;;3.30;1.42;;;;;;;;;;5014104;28;20056;-77
2021/08/07 13:48:10;;;;;;;2.63;1.73;;;;;;;;;;5013236;28;20029;-76
2021/08/07 13:50:36;;;;;;;5.05;1.60;;;;;;;;;;5011697;28;20152;-74
2021/08/07 13:53:02;;;;;;;3.00;1.20;;;;;;;;;;5012111;28;20117;-77
2021/08/07 13:55:29;;;;;;;4.85;1.50;;;;;;;;;;5011797;28;20463;-77
2021/08/07 13:57:55;;;;;;;4.15;1.48;;;;;;;;;;5012800;28;20018;-77
2021/08/07 14:00:21;;;;;;;2.30;1.50;;;;;;;;;;4994407;28;20034;-77
2021/08/07 14:02:48;;;;;;;3.10;1.35;;;;;;;;;;5012734;28;20481;-77
2021/08/07 14:05:14;;;;;;;1.88;1.20;;;;;;;;;;5012851;28;20029;-78
2021/08/07 14:07:42;;;;;;;2.88;1.27;;;;;;;;;;5007551;28;20034;-78
2021/08/07 14:10:08;;;;;;;2.50;1.35;;;;;;;;;;5014805;28;20056;-77